createdAt,value
2023-05-16T00:00:27.380Z,93.50
2023-05-16T00:02:51.459Z,93.70
2023-05-16T00:05:15.536Z,93.60
2023-05-16T00:07:38.862Z,93.60
2023-05-16T00:10:03.972Z,93.80
2023-05-16T00:12:27.343Z,93.70
2023-05-16T00:14:51.528Z,93.80
2023-05-16T00:17:17.529Z,93.60
2023-05-16T00:19:42.158Z,93.70
2023-05-16T00:22:05.984Z,93.70
2023-05-16T00:24:29.363Z,93.70
2023-05-16T00:26:53.960Z,94.00
2023-05-16T00:29:17.366Z,93.80
2023-05-16T00:31:40.648Z,93.80
2023-05-16T00:34:04.033Z,93.80
2023-05-16T00:36:27.274Z,93.60
2023-05-16T00:38:50.712Z,93.80
2023-05-16T00:41:14.124Z,93.70
2023-05-16T00:43:39.612Z,93.80
2023-05-16T00:46:02.960Z,93.80
2023-05-16T00:48:26.580Z,93.90
2023-05-16T00:50:50.285Z,93.70
2023-05-16T00:53:13.777Z,93.80
2023-05-16T00:55:37.006Z,94.00
2023-05-16T00:58:00.854Z,94.00
2023-05-16T01:00:26.112Z,94.00
2023-05-16T01:02:51.756Z,94.10
2023-05-16T01:05:15.155Z,93.90
2023-05-16T01:07:38.532Z,94.20
2023-05-16T01:10:05.703Z,94.20
2023-05-16T01:12:39.268Z,93.80
2023-05-16T01:15:10.354Z,93.90
2023-05-16T01:17:47.313Z,93.50
2023-05-16T01:20:21.716Z,93.60
2023-05-16T01:23:06.134Z,93.70
2023-05-16T01:25:44.120Z,93.50
2023-05-16T01:28:09.350Z,93.10
2023-05-16T01:30:36.824Z,93.00
2023-05-16T01:33:00.108Z,93.00
2023-05-16T01:35:23.516Z,93.10
2023-05-16T01:37:56.642Z,92.90
2023-05-16T01:40:28.899Z,92.90
2023-05-16T01:42:56.303Z,92.70
2023-05-16T01:45:27.815Z,92.70
2023-05-16T01:48:00.383Z,92.70
2023-05-16T01:50:27.135Z,92.60
2023-05-16T01:52:55.261Z,92.50
2023-05-16T01:55:26.089Z,92.70
2023-05-16T01:57:51.172Z,93.00
2023-05-16T02:00:15.050Z,92.20
2023-05-16T02:02:39.910Z,92.30
2023-05-16T02:05:03.212Z,92.00
2023-05-16T02:07:26.979Z,92.10
2023-05-16T02:09:50.212Z,91.60
2023-05-16T02:12:13.491Z,92.00
2023-05-16T02:14:36.898Z,91.90
2023-05-16T02:17:00.529Z,91.90
2023-05-16T02:19:25.225Z,92.10
2023-05-16T02:21:48.464Z,92.60
2023-05-16T02:24:11.754Z,92.70
2023-05-16T02:26:34.971Z,92.70
2023-05-16T02:28:58.300Z,92.60
2023-05-16T02:31:29.222Z,92.90
2023-05-16T02:33:52.588Z,93.20
2023-05-16T02:36:17.177Z,93.30
2023-05-16T02:38:40.443Z,93.40
2023-05-16T02:41:03.714Z,93.30
2023-05-16T02:43:27.111Z,93.40
2023-05-16T02:45:50.510Z,93.20
2023-05-16T02:48:13.834Z,93.40
2023-05-16T02:50:40.213Z,93.30
2023-05-16T02:53:04.843Z,93.40
2023-05-16T02:55:28.248Z,93.30
2023-05-16T02:57:51.851Z,93.30
2023-05-16T03:00:18.485Z,93.00
2023-05-16T03:02:42.234Z,92.60
2023-05-16T03:05:06.669Z,92.30
2023-05-16T03:07:30.158Z,92.30
2023-05-16T03:09:54.852Z,92.00
2023-05-16T03:12:18.111Z,91.90
2023-05-16T03:14:41.342Z,91.90
2023-05-16T03:17:06.450Z,92.00
2023-05-16T03:19:29.686Z,91.90
2023-05-16T03:21:52.940Z,92.10
2023-05-16T03:24:16.326Z,92.20
2023-05-16T03:26:41.757Z,92.00
2023-05-16T03:29:05.297Z,92.10
2023-05-16T03:31:28.557Z,92.10
2023-05-16T03:33:51.939Z,92.50
2023-05-16T03:36:15.255Z,92.20
2023-05-16T03:38:38.888Z,92.50
2023-05-16T03:41:02.452Z,92.40
2023-05-16T03:43:27.268Z,92.40
2023-05-16T03:45:50.641Z,92.40
2023-05-16T03:48:14.051Z,92.40
2023-05-16T03:50:40.299Z,92.40
2023-05-16T03:53:04.680Z,92.40
2023-05-16T03:55:28.229Z,92.60
2023-05-16T03:57:52.493Z,92.60
2023-05-16T04:00:17.976Z,92.60
2023-05-16T04:02:42.955Z,92.50
2023-05-16T04:05:08.426Z,92.40
2023-05-16T04:07:31.741Z,92.70
2023-05-16T04:09:55.751Z,92.70
2023-05-16T04:12:19.046Z,92.60
2023-05-16T04:14:42.379Z,92.70
2023-05-16T04:17:07.271Z,93.00
2023-05-16T04:19:30.662Z,92.50
2023-05-16T04:21:54.444Z,92.60
2023-05-16T04:24:22.353Z,92.70
2023-05-16T04:26:45.664Z,92.80
2023-05-16T04:29:08.941Z,92.50
2023-05-16T04:31:32.353Z,92.40
2023-05-16T04:33:58.025Z,92.60
2023-05-16T04:36:22.089Z,92.80
2023-05-16T04:38:46.830Z,92.30
2023-05-16T04:41:10.118Z,92.50
2023-05-16T04:43:33.403Z,92.60
2023-05-16T04:45:58.594Z,92.50
2023-05-16T04:48:22.002Z,92.50
2023-05-16T04:50:46.703Z,92.50
2023-05-16T04:53:09.961Z,92.50
2023-05-16T04:55:33.274Z,92.50
2023-05-16T04:57:56.493Z,92.50
2023-05-16T05:00:20.636Z,92.60
2023-05-16T05:02:44.707Z,92.50
2023-05-16T05:05:10.215Z,92.30
2023-05-16T05:07:35.534Z,92.40
2023-05-16T05:09:58.832Z,92.50
2023-05-16T05:12:22.082Z,92.60
2023-05-16T05:14:45.283Z,92.50
2023-05-16T05:17:08.606Z,92.50
2023-05-16T05:19:32.070Z,92.40
2023-05-16T05:21:55.510Z,92.40
2023-05-16T05:24:20.316Z,92.50
2023-05-16T05:26:43.544Z,92.30
2023-05-16T05:29:06.848Z,92.20
2023-05-16T05:31:30.246Z,91.80
2023-05-16T05:33:53.493Z,91.90
2023-05-16T05:36:17.505Z,91.60
2023-05-16T05:38:40.737Z,91.50
2023-05-16T05:41:05.495Z,91.30
2023-05-16T05:43:29.201Z,91.60
2023-05-16T05:45:52.544Z,90.80
2023-05-16T05:48:15.947Z,90.60
2023-05-16T05:50:40.577Z,90.50
2023-05-16T05:53:04.061Z,90.20
2023-05-16T05:55:27.560Z,90.40
2023-05-16T05:57:52.420Z,90.30
2023-05-16T06:00:16.618Z,89.60
2023-05-16T06:02:40.399Z,89.10
2023-05-16T06:05:04.019Z,88.30
2023-05-16T06:07:27.369Z,88.30
2023-05-16T06:09:50.582Z,88.60
2023-05-16T06:12:13.874Z,88.50
2023-05-16T06:14:38.553Z,88.70
2023-05-16T06:17:01.897Z,87.90
2023-05-16T06:19:25.857Z,88.40
2023-05-16T06:21:49.266Z,87.30
2023-05-16T06:24:12.597Z,87.90
2023-05-16T06:26:36.638Z,87.60
2023-05-16T06:29:00.292Z,87.70
2023-05-16T06:31:24.988Z,88.10
2023-05-16T06:33:48.246Z,87.40
2023-05-16T06:36:11.610Z,87.40
2023-05-16T06:38:34.840Z,88.60
2023-05-16T06:40:58.521Z,86.40
2023-05-16T06:43:21.843Z,86.90
2023-05-16T06:45:47.071Z,86.00
2023-05-16T06:48:12.176Z,85.00
2023-05-16T06:50:36.443Z,83.10
2023-05-16T06:52:59.758Z,85.50
2023-05-16T06:55:23.421Z,85.70
2023-05-16T06:57:47.015Z,83.10
2023-05-16T07:00:11.923Z,84.90
2023-05-16T07:02:35.274Z,82.30
2023-05-16T07:05:00.059Z,82.50
2023-05-16T07:07:23.395Z,83.10
2023-05-16T07:09:46.662Z,81.40
2023-05-16T07:12:10.523Z,82.30
2023-05-16T07:14:33.782Z,82.30
2023-05-16T07:16:57.132Z,84.30
2023-05-16T07:19:20.663Z,82.50
2023-05-16T07:21:45.760Z,82.10
2023-05-16T07:24:09.374Z,81.50
2023-05-16T07:26:32.594Z,80.10
2023-05-16T07:28:55.968Z,80.50
2023-05-16T07:31:19.409Z,80.80
2023-05-16T07:33:42.732Z,79.40
2023-05-16T07:36:16.057Z,81.40
2023-05-16T07:38:41.730Z,78.90
2023-05-16T07:41:04.995Z,79.40
2023-05-16T07:43:28.501Z,74.80
2023-05-16T07:45:53.882Z,73.10
2023-05-16T07:48:17.286Z,74.30
2023-05-16T07:50:40.666Z,71.70
2023-05-16T07:53:04.050Z,74.40
2023-05-16T07:55:29.062Z,73.80
2023-05-16T07:57:52.562Z,75.40
2023-05-16T08:00:17.448Z,74.90
2023-05-16T08:02:41.128Z,75.50
2023-05-16T08:05:05.912Z,75.10
2023-05-16T08:07:29.217Z,73.50
2023-05-16T08:09:52.807Z,73.80
2023-05-16T08:12:17.467Z,71.90
2023-05-16T08:14:40.991Z,70.10
2023-05-16T08:17:04.590Z,75.30
2023-05-16T08:19:29.468Z,71.40
2023-05-16T08:21:53.183Z,67.60
2023-05-16T08:24:18.255Z,68.20
2023-05-16T08:26:41.689Z,68.60
2023-05-16T08:29:06.349Z,69.50
2023-05-16T08:31:29.690Z,70.30
2023-05-16T08:33:53.163Z,70.40
2023-05-16T08:36:19.712Z,68.20
2023-05-16T08:38:43.061Z,72.40
2023-05-16T08:41:07.372Z,67.00
2023-05-16T08:43:30.997Z,70.60
2023-05-16T08:45:55.814Z,65.20
2023-05-16T08:48:24.613Z,65.70
2023-05-16T08:50:48.110Z,70.10
2023-05-16T08:53:13.467Z,69.60
2023-05-16T08:55:37.842Z,66.80
2023-05-16T08:58:02.172Z,69.50
2023-05-16T09:00:26.292Z,66.20
2023-05-16T09:02:52.034Z,66.30
2023-05-16T09:05:18.284Z,66.50
2023-05-16T09:07:42.050Z,66.40
2023-05-16T09:10:06.952Z,65.70
2023-05-16T09:12:30.213Z,65.80
2023-05-16T09:14:53.544Z,64.20
2023-05-16T09:17:18.695Z,63.40
2023-05-16T09:19:48.869Z,60.70
2023-05-16T09:22:14.640Z,68.10
2023-05-16T09:24:40.808Z,62.50
2023-05-16T09:27:10.378Z,66.30
2023-05-16T09:29:36.858Z,67.10
2023-05-16T09:32:11.346Z,66.90
2023-05-16T09:34:40.772Z,68.80
2023-05-16T09:37:05.608Z,70.90
2023-05-16T09:39:29.550Z,70.80
2023-05-16T09:41:53.851Z,70.60
2023-05-16T09:44:20.153Z,70.50
2023-05-16T09:46:43.622Z,67.50
2023-05-16T09:49:07.109Z,69.60
2023-05-16T09:51:31.624Z,67.30
2023-05-16T09:53:56.321Z,65.30
2023-05-16T09:56:19.795Z,70.90
2023-05-16T09:58:44.653Z,62.20
2023-05-16T10:01:09.088Z,62.30
2023-05-16T10:03:33.522Z,63.30
2023-05-16T10:05:57.590Z,60.20
2023-05-16T10:08:23.504Z,63.70
2023-05-16T10:10:52.151Z,63.00
2023-05-16T10:13:16.424Z,66.80
2023-05-16T10:15:40.752Z,61.00
2023-05-16T10:18:05.475Z,61.20
2023-05-16T10:20:29.324Z,60.20
2023-05-16T10:22:56.805Z,65.60
2023-05-16T10:25:31.064Z,63.10
2023-05-16T10:27:56.682Z,63.80
2023-05-16T10:30:20.914Z,65.80
2023-05-16T10:32:45.674Z,66.60
2023-05-16T10:35:10.176Z,66.00
2023-05-16T10:37:34.762Z,69.00
2023-05-16T10:39:58.872Z,70.90
2023-05-16T10:42:22.485Z,72.70
2023-05-16T10:45:01.887Z,73.20
2023-05-16T10:47:28.301Z,75.20
2023-05-16T10:49:51.735Z,74.00
2023-05-16T10:52:18.071Z,74.00
2023-05-16T10:54:43.529Z,73.50
2023-05-16T10:57:09.899Z,70.10
2023-05-16T10:59:43.246Z,70.50
2023-05-16T11:02:24.972Z,67.70
2023-05-16T11:04:51.627Z,68.90
2023-05-16T11:07:16.546Z,66.10
2023-05-16T11:09:46.491Z,66.20
2023-05-16T11:12:11.634Z,65.10
2023-05-16T11:14:42.394Z,64.40
2023-05-16T11:17:10.389Z,62.50
2023-05-16T11:19:37.144Z,55.10
2023-05-16T11:22:08.797Z,56.50
2023-05-16T11:24:32.857Z,60.80
2023-05-16T11:26:56.085Z,59.70
2023-05-16T11:29:19.509Z,57.50
2023-05-16T11:31:42.808Z,61.60
2023-05-16T11:34:07.757Z,54.90
2023-05-16T11:36:32.322Z,58.50
2023-05-16T11:38:56.558Z,58.50
2023-05-16T11:41:21.052Z,60.30
2023-05-16T11:43:46.318Z,60.30
2023-05-16T11:46:13.261Z,64.70
2023-05-16T11:48:37.201Z,61.60
2023-05-16T11:51:01.958Z,67.90
2023-05-16T11:53:26.202Z,67.50
2023-05-16T11:55:56.071Z,67.00
2023-05-16T11:58:20.530Z,67.00
2023-05-16T12:00:50.126Z,70.40
2023-05-16T12:03:13.495Z,67.20
2023-05-16T12:05:37.258Z,64.60
2023-05-16T12:08:02.731Z,62.60
2023-05-16T12:10:26.548Z,55.10
2023-05-16T12:12:53.416Z,56.90
2023-05-16T12:15:17.231Z,55.70
2023-05-16T12:17:42.870Z,56.40
2023-05-16T12:20:11.586Z,53.30
2023-05-16T12:22:35.517Z,55.60
2023-05-16T12:25:27.180Z,53.30
2023-05-16T12:27:50.881Z,53.30
2023-05-16T12:30:15.161Z,54.70
2023-05-16T12:32:39.079Z,53.90
2023-05-16T12:35:03.219Z,49.70
2023-05-16T12:37:26.683Z,51.40
2023-05-16T12:39:50.053Z,53.60
2023-05-16T12:42:15.350Z,52.60
2023-05-16T12:44:38.649Z,47.90
2023-05-16T12:47:01.940Z,46.60
2023-05-16T12:49:25.443Z,53.60
2023-05-16T12:51:53.007Z,51.50
2023-05-16T12:54:16.673Z,53.60
2023-05-16T12:56:41.097Z,49.40
2023-05-16T12:59:05.978Z,48.80
2023-05-16T13:01:29.287Z,53.60
2023-05-16T13:03:52.702Z,51.70
2023-05-16T13:06:16.779Z,49.80
2023-05-16T13:08:40.055Z,47.90
2023-05-16T13:11:03.381Z,52.10
2023-05-16T13:13:36.006Z,48.20
2023-05-16T13:16:01.391Z,53.50
2023-05-16T13:18:24.791Z,51.90
2023-05-16T13:20:51.020Z,52.00
2023-05-16T13:23:14.378Z,53.10
2023-05-16T13:25:37.790Z,50.90
2023-05-16T13:28:01.203Z,52.70
2023-05-16T13:30:24.662Z,53.50
2023-05-16T13:32:49.571Z,50.30
2023-05-16T13:35:13.409Z,54.10
2023-05-16T13:37:37.669Z,53.10
2023-05-16T13:40:01.122Z,54.50
2023-05-16T13:42:24.486Z,54.50
2023-05-16T13:44:47.817Z,53.30
2023-05-16T13:47:11.626Z,53.10
2023-05-16T13:49:36.369Z,52.80
2023-05-16T13:52:01.561Z,51.10
2023-05-16T13:54:25.007Z,55.10
2023-05-16T13:56:48.708Z,56.50
2023-05-16T13:59:16.618Z,53.80
2023-05-16T14:01:44.325Z,56.80
2023-05-16T14:04:07.775Z,57.50
2023-05-16T14:06:33.447Z,56.70
2023-05-16T14:08:56.789Z,53.90
2023-05-16T14:11:23.113Z,57.80
2023-05-16T14:13:46.569Z,56.30
2023-05-16T14:16:10.279Z,53.60
2023-05-16T14:18:33.840Z,52.80
2023-05-16T14:20:57.291Z,51.20
2023-05-16T14:23:21.942Z,50.80
2023-05-16T14:25:45.327Z,52.10
2023-05-16T14:28:08.718Z,50.10
2023-05-16T14:30:32.057Z,52.30
2023-05-16T14:32:56.228Z,50.10
2023-05-16T14:35:19.809Z,51.00
2023-05-16T14:37:43.043Z,52.60
2023-05-16T14:40:10.302Z,52.90
2023-05-16T14:42:33.854Z,52.60
2023-05-16T14:44:57.168Z,53.00
2023-05-16T14:47:20.590Z,54.50
2023-05-16T14:49:43.857Z,54.20
2023-05-16T14:52:07.656Z,53.20
2023-05-16T14:54:31.059Z,53.70
2023-05-16T14:56:56.562Z,51.90
2023-05-16T14:59:19.846Z,56.00
2023-05-16T15:01:43.211Z,53.30
2023-05-16T15:04:06.769Z,54.50
2023-05-16T15:06:30.520Z,54.90
2023-05-16T15:08:54.430Z,54.70
2023-05-16T15:11:17.815Z,54.80
2023-05-16T15:13:42.567Z,56.00
2023-05-16T15:16:06.687Z,55.20
2023-05-16T15:18:30.126Z,57.00
2023-05-16T15:20:53.443Z,57.30
2023-05-16T15:23:16.819Z,55.90
2023-05-16T15:25:40.686Z,56.80
2023-05-16T15:28:04.120Z,55.80
2023-05-16T15:30:29.069Z,57.90
2023-05-16T15:32:52.432Z,56.20
2023-05-16T15:35:16.281Z,57.40
2023-05-16T15:37:40.118Z,58.20
2023-05-16T15:40:04.538Z,58.60
2023-05-16T15:42:28.005Z,58.30
2023-05-16T15:44:51.286Z,58.00
2023-05-16T15:47:16.028Z,57.80
2023-05-16T15:49:39.319Z,57.00
2023-05-16T15:52:02.629Z,60.10
2023-05-16T15:54:26.045Z,61.70
2023-05-16T15:56:49.370Z,57.80
2023-05-16T15:59:12.774Z,58.50
2023-05-16T16:01:36.127Z,60.30
2023-05-16T16:04:00.961Z,58.80
2023-05-16T16:06:24.263Z,59.00
2023-05-16T16:08:47.730Z,58.50
2023-05-16T16:11:11.020Z,59.60
2023-05-16T16:13:34.546Z,61.20
2023-05-16T16:15:57.984Z,61.50
2023-05-16T16:18:21.483Z,61.70
2023-05-16T16:20:46.177Z,61.30
2023-05-16T16:23:09.455Z,60.80
2023-05-16T16:25:32.772Z,60.60
2023-05-16T16:27:56.271Z,62.80
2023-05-16T16:30:19.577Z,61.30
2023-05-16T16:32:42.950Z,62.70
2023-05-16T16:35:07.792Z,63.00
2023-05-16T16:37:33.089Z,58.70
2023-05-16T16:39:56.470Z,59.70
2023-05-16T16:42:19.997Z,60.40
2023-05-16T16:44:43.286Z,62.80
2023-05-16T16:47:07.075Z,60.70
2023-05-16T16:49:31.373Z,61.40
2023-05-16T16:51:54.765Z,62.30
2023-05-16T16:54:19.414Z,62.60
2023-05-16T16:56:43.104Z,62.30
2023-05-16T16:59:06.469Z,64.10
2023-05-16T17:01:31.926Z,62.30
2023-05-16T17:03:55.542Z,63.00
2023-05-16T17:06:19.444Z,63.90
2023-05-16T17:08:43.382Z,63.70
2023-05-16T17:11:08.131Z,64.20
2023-05-16T17:13:33.834Z,63.40
2023-05-16T17:15:57.388Z,62.90
2023-05-16T17:18:21.755Z,63.60
2023-05-16T17:20:45.209Z,63.20
2023-05-16T17:23:08.526Z,65.40
2023-05-16T17:25:32.452Z,64.10
2023-05-16T17:27:57.317Z,64.30
2023-05-16T17:30:20.677Z,62.50
2023-05-16T17:32:44.027Z,64.80
2023-05-16T17:35:07.726Z,64.10
2023-05-16T17:37:31.147Z,63.60
2023-05-16T17:39:54.591Z,63.80
2023-05-16T17:42:17.918Z,64.20
2023-05-16T17:44:42.569Z,62.40
2023-05-16T17:47:06.360Z,62.70
2023-05-16T17:49:29.923Z,63.80
2023-05-16T17:51:55.251Z,65.20
2023-05-16T17:54:19.669Z,64.30
2023-05-16T17:56:43.796Z,65.10
2023-05-16T17:59:07.077Z,65.20
2023-05-16T18:01:32.197Z,65.90
2023-05-16T18:03:55.631Z,66.80
2023-05-16T18:06:19.671Z,64.00
2023-05-16T18:08:43.189Z,66.50
2023-05-16T18:11:06.444Z,65.60
2023-05-16T18:13:30.950Z,65.50
2023-05-16T18:15:54.283Z,64.90
2023-05-16T18:18:19.017Z,65.50
2023-05-16T18:20:42.881Z,66.00
2023-05-16T18:23:06.217Z,65.90
2023-05-16T18:25:31.016Z,68.50
2023-05-16T18:27:54.462Z,69.00
2023-05-16T18:30:18.158Z,69.30
2023-05-16T18:32:41.525Z,68.10
2023-05-16T18:35:07.289Z,67.60
2023-05-16T18:37:31.072Z,68.90
2023-05-16T18:39:54.504Z,68.30
2023-05-16T18:42:18.667Z,68.70
2023-05-16T18:44:42.051Z,67.50
2023-05-16T18:47:05.828Z,68.10
2023-05-16T18:49:29.506Z,68.70
2023-05-16T18:51:54.282Z,68.00
2023-05-16T18:54:17.615Z,69.00
2023-05-16T18:56:41.890Z,68.20
2023-05-16T18:59:05.586Z,68.60
2023-05-16T19:01:29.268Z,69.00
2023-05-16T19:03:53.443Z,71.70
2023-05-16T19:06:17.152Z,70.30
2023-05-16T19:08:48.045Z,69.00
2023-05-16T19:11:12.172Z,69.70
2023-05-16T19:13:35.883Z,69.40
2023-05-16T19:15:59.393Z,70.40
2023-05-16T19:18:22.791Z,69.30
2023-05-16T19:20:46.288Z,69.60
2023-05-16T19:23:09.548Z,70.20
2023-05-16T19:25:34.294Z,70.10
2023-05-16T19:27:58.348Z,70.00
2023-05-16T19:30:21.892Z,71.30
2023-05-16T19:32:45.404Z,71.00
2023-05-16T19:35:10.945Z,70.50
2023-05-16T19:37:34.779Z,71.20
2023-05-16T19:39:58.113Z,71.30
2023-05-16T19:42:22.898Z,73.00
2023-05-16T19:44:46.224Z,73.80
2023-05-16T19:47:09.586Z,72.70
2023-05-16T19:49:33.591Z,71.90
2023-05-16T19:51:56.946Z,72.40
2023-05-16T19:54:20.464Z,74.00
2023-05-16T19:56:43.758Z,74.00
2023-05-16T19:59:08.536Z,74.50
2023-05-16T20:01:31.939Z,73.40
2023-05-16T20:03:55.376Z,73.50
2023-05-16T20:06:18.735Z,73.40
2023-05-16T20:08:42.071Z,73.70
2023-05-16T20:11:05.361Z,73.60
2023-05-16T20:13:30.418Z,73.30
2023-05-16T20:15:55.057Z,74.20
2023-05-16T20:18:18.460Z,73.20
2023-05-16T20:20:41.841Z,73.60
2023-05-16T20:23:05.241Z,73.60
2023-05-16T20:25:28.892Z,74.30
2023-05-16T20:27:52.245Z,74.60
2023-05-16T20:30:16.222Z,73.60
2023-05-16T20:32:41.204Z,74.40
2023-05-16T20:35:08.974Z,73.20
2023-05-16T20:37:32.351Z,73.70
2023-05-16T20:39:56.378Z,73.40
2023-05-16T20:42:19.729Z,73.00
2023-05-16T20:44:45.444Z,72.90
2023-05-16T20:47:09.358Z,72.50
2023-05-16T20:49:35.964Z,73.30
2023-05-16T20:51:59.364Z,73.50
2023-05-16T20:54:22.795Z,73.60
2023-05-16T20:56:46.077Z,73.20
2023-05-16T20:59:09.578Z,73.40
2023-05-16T21:01:33.401Z,73.50
2023-05-16T21:03:56.801Z,73.90
2023-05-16T21:06:21.432Z,74.50
2023-05-16T21:08:44.786Z,74.30
2023-05-16T21:11:08.142Z,74.10
2023-05-16T21:13:33.113Z,74.70
2023-05-16T21:15:56.453Z,73.90
2023-05-16T21:18:19.780Z,74.20
2023-05-16T21:20:43.198Z,75.90
2023-05-16T21:23:07.856Z,74.40
2023-05-16T21:25:31.189Z,75.40
2023-05-16T21:27:54.599Z,75.30
2023-05-16T21:30:18.241Z,76.50
2023-05-16T21:32:41.570Z,76.30
2023-05-16T21:35:06.858Z,75.50
2023-05-16T21:37:30.253Z,75.70
2023-05-16T21:39:54.985Z,76.10
2023-05-16T21:42:18.281Z,76.40
2023-05-16T21:44:41.687Z,77.20
2023-05-16T21:47:05.353Z,77.20
2023-05-16T21:49:28.605Z,77.10
2023-05-16T21:51:51.901Z,77.30
2023-05-16T21:54:15.284Z,77.40
2023-05-16T21:56:40.022Z,77.70
2023-05-16T21:59:03.425Z,78.00
2023-05-16T22:01:28.181Z,78.10
2023-05-16T22:03:51.839Z,78.30
2023-05-16T22:06:15.257Z,78.50
2023-05-16T22:08:38.572Z,78.50
2023-05-16T22:11:02.355Z,78.60
2023-05-16T22:13:27.148Z,78.40
2023-05-16T22:16:03.454Z,78.70
2023-05-16T22:18:27.853Z,79.30
2023-05-16T22:20:51.252Z,79.00
2023-05-16T22:23:14.556Z,79.30
2023-05-16T22:25:37.883Z,79.30
2023-05-16T22:28:01.229Z,79.80
2023-05-16T22:30:26.275Z,80.40
2023-05-16T22:32:49.714Z,80.10
2023-05-16T22:35:13.287Z,80.70
2023-05-16T22:37:36.747Z,79.90
2023-05-16T22:40:00.164Z,80.40
2023-05-16T22:42:23.458Z,80.60
2023-05-16T22:44:46.804Z,80.60
2023-05-16T22:47:11.445Z,80.90
2023-05-16T22:49:34.757Z,81.40
2023-05-16T22:51:58.020Z,81.50
2023-05-16T22:54:21.305Z,81.90
2023-05-16T22:56:44.622Z,81.70
2023-05-16T22:59:07.960Z,81.70
2023-05-16T23:01:31.317Z,82.00
2023-05-16T23:03:56.199Z,82.10
2023-05-16T23:06:19.541Z,82.10
2023-05-16T23:08:42.980Z,82.10
2023-05-16T23:11:06.423Z,83.30
2023-05-16T23:13:29.809Z,83.50
2023-05-16T23:15:53.102Z,82.70
2023-05-16T23:18:16.563Z,83.10
2023-05-16T23:20:41.281Z,83.30
2023-05-16T23:23:04.925Z,84.00
2023-05-16T23:25:28.553Z,83.50
2023-05-16T23:27:52.087Z,83.70
2023-05-16T23:30:16.412Z,84.20
2023-05-16T23:32:39.801Z,83.90
2023-05-16T23:35:03.363Z,84.30
2023-05-16T23:37:28.013Z,84.50
2023-05-16T23:39:51.466Z,84.90
2023-05-16T23:42:15.022Z,85.20
2023-05-16T23:44:39.657Z,85.00
2023-05-16T23:47:02.941Z,85.20
2023-05-16T23:49:26.433Z,85.00
2023-05-16T23:51:57.522Z,84.90
2023-05-16T23:54:22.857Z,84.70
2023-05-16T23:56:46.197Z,85.20
2023-05-16T23:59:09.547Z,85.50
